Impacts TAF Board
For situational awareness. Not to be used for flight planning purposes.
IDs:

KIWA - Phoenix/Mesa Gateway, AZ, US

Issued at 1740 UTC 02 Aug 2021
Updated at 2140 UTC 02 Aug 2021
Potential Impact None Slight Moderate High
Time2050Z 02/22Z 02/23Z 03/00Z 03/01Z 03/02Z 03/03Z 03/04Z 03/05Z 03/06Z 03/07Z 03/08Z 03/09Z 03/10Z>>
Type OBS PRVL PRVL PRVL PRVL PRVL PRVL PRVL PRVL PRVL PRVL PRVL PRVL PRVL
VIS 10 >6 >6 >6 >6 >6 >6 >6 >6 >6 >6 >6 >6 >6
CIG -- -- -- -- -- -- -- -- -- -- -- -- -- --
Cover SCT FEW FEW FEW FEW FEW FEW FEW FEW FEW FEW FEW FEW FEW
FltCat VFR VFR VFR VFR VFR VFR VFR VFR VFR VFR VFR VFR VFR VFR
WX -- -- -- -- -- -- -- -- -- -- -- -- -- --
WDir VRB 250 250 250 250 250 120 120 120 120 120 120 120 120
WSpd 0 8 8 8 8 8 9 9 9 9 9 9 9 9
WGst -- -- -- -- -- -- -- -- -- -- -- -- -- --
Raw TAF
KIWA 021740Z 0218/0318 14008KT P6SM FEW090
  FM022000 25008KT P6SM FEW120
  FM030300 12009KT P6SM FEW120 FEW250


Raw METAR
KIWA 022050Z 00000KT 10SM SCT180 39/16 A2995 RMK TCU DSNT N-S.
KIWA 021850Z 10005KT 10SM FEW100 38/17 A2999 RMK TCU DSNT N-SE. LTG DSNT NE.

METAR Board
Radar Display
Forecast Discussion
For situational awareness. Not to be used for flight planning purposes.